sensor_id;sensor_type;location;lat;lon;timestamp;P1;durP1;ratioP1;P2;durP2;ratioP2
62844;SDS011;48929;47.910;20.390;2023-03-23T00:02:09;19.42;;;10.82;;
62844;SDS011;48929;47.910;20.390;2023-03-23T00:04:38;22.15;;;10.75;;
62844;SDS011;48929;47.910;20.390;2023-03-23T00:07:08;19.40;;;10.73;;
62844;SDS011;48929;47.910;20.390;2023-03-23T00:09:38;21.50;;;11.15;;
62844;SDS011;48929;47.910;20.390;2023-03-23T00:12:06;21.80;;;10.93;;
62844;SDS011;48929;47.910;20.390;2023-03-23T00:14:34;20.02;;;10.57;;
62844;SDS011;48929;47.910;20.390;2023-03-23T00:17:07;17.85;;;10.07;;
62844;SDS011;48929;47.910;20.390;2023-03-23T00:19:42;17.30;;;9.55;;
62844;SDS011;48929;47.910;20.390;2023-03-23T00:22:17;18.43;;;10.53;;
62844;SDS011;48929;47.910;20.390;2023-03-23T00:24:46;21.77;;;11.05;;
62844;SDS011;48929;47.910;20.390;2023-03-23T00:27:16;21.25;;;11.45;;
62844;SDS011;48929;47.910;20.390;2023-03-23T00:29:43;18.45;;;9.80;;
62844;SDS011;48929;47.910;20.390;2023-03-23T00:32:12;22.83;;;11.40;;
62844;SDS011;48929;47.910;20.390;2023-03-23T00:34:43;22.30;;;10.95;;
62844;SDS011;48929;47.910;20.390;2023-03-23T00:37:12;21.30;;;10.95;;
62844;SDS011;48929;47.910;20.390;2023-03-23T00:39:42;20.08;;;10.23;;
62844;SDS011;48929;47.910;20.390;2023-03-23T00:42:11;19.27;;;9.85;;
62844;SDS011;48929;47.910;20.390;2023-03-23T00:44:39;20.95;;;11.38;;
62844;SDS011;48929;47.910;20.390;2023-03-23T00:47:07;21.63;;;11.35;;
62844;SDS011;48929;47.910;20.390;2023-03-23T00:49:36;22.13;;;11.18;;
62844;SDS011;48929;47.910;20.390;2023-03-23T00:52:06;22.58;;;12.68;;
62844;SDS011;48929;47.910;20.390;2023-03-23T00:54:33;20.15;;;11.30;;
62844;SDS011;48929;47.910;20.390;2023-03-23T00:57:03;20.80;;;10.82;;
62844;SDS011;48929;47.910;20.390;2023-03-23T00:59:31;21.73;;;11.02;;
62844;SDS011;48929;47.910;20.390;2023-03-23T01:01:59;23.52;;;12.75;;
62844;SDS011;48929;47.910;20.390;2023-03-23T01:04:26;26.38;;;13.00;;
62844;SDS011;48929;47.910;20.390;2023-03-23T01:06:57;21.58;;;12.10;;
62844;SDS011;48929;47.910;20.390;2023-03-23T01:09:27;23.80;;;13.05;;
62844;SDS011;48929;47.910;20.390;2023-03-23T01:11:58;24.63;;;12.68;;
62844;SDS011;48929;47.910;20.390;2023-03-23T01:14:25;22.05;;;11.82;;
62844;SDS011;48929;47.910;20.390;2023-03-23T01:16:53;25.65;;;12.88;;
62844;SDS011;48929;47.910;20.390;2023-03-23T01:19:20;22.98;;;12.25;;
62844;SDS011;48929;47.910;20.390;2023-03-23T01:21:48;24.15;;;12.98;;
62844;SDS011;48929;47.910;20.390;2023-03-23T01:24:16;23.35;;;11.95;;
62844;SDS011;48929;47.910;20.390;2023-03-23T01:26:45;22.80;;;12.27;;
62844;SDS011;48929;47.910;20.390;2023-03-23T01:29:12;23.33;;;12.32;;
62844;SDS011;48929;47.910;20.390;2023-03-23T01:31:40;21.25;;;11.40;;
62844;SDS011;48929;47.910;20.390;2023-03-23T01:34:08;26.67;;;12.27;;
62844;SDS011;48929;47.910;20.390;2023-03-23T01:36:35;25.13;;;11.95;;
62844;SDS011;48929;47.910;20.390;2023-03-23T01:39:04;25.98;;;12.60;;
62844;SDS011;48929;47.910;20.390;2023-03-23T01:41:33;25.58;;;12.77;;
62844;SDS011;48929;47.910;20.390;2023-03-23T01:44:03;27.35;;;13.13;;
62844;SDS011;48929;47.910;20.390;2023-03-23T01:46:33;21.83;;;11.73;;
62844;SDS011;48929;47.910;20.390;2023-03-23T01:49:03;23.67;;;12.63;;
62844;SDS011;48929;47.910;20.390;2023-03-23T01:51:34;25.00;;;12.52;;
62844;SDS011;48929;47.910;20.390;2023-03-23T01:54:04;25.77;;;11.98;;
62844;SDS011;48929;47.910;20.390;2023-03-23T01:56:35;28.25;;;12.40;;
62844;SDS011;48929;47.910;20.390;2023-03-23T01:59:08;23.23;;;12.05;;
62844;SDS011;48929;47.910;20.390;2023-03-23T02:01:36;23.10;;;11.88;;
62844;SDS011;48929;47.910;20.390;2023-03-23T02:04:09;22.30;;;12.20;;
62844;SDS011;48929;47.910;20.390;2023-03-23T02:06:36;20.73;;;11.00;;
62844;SDS011;48929;47.910;20.390;2023-03-23T02:09:04;25.73;;;12.27;;
62844;SDS011;48929;47.910;20.390;2023-03-23T02:11:32;25.25;;;12.52;;
62844;SDS011;48929;47.910;20.390;2023-03-23T02:13:59;23.67;;;12.27;;
62844;SDS011;48929;47.910;20.390;2023-03-23T02:16:31;22.00;;;12.65;;
62844;SDS011;48929;47.910;20.390;2023-03-23T02:19:08;25.30;;;11.85;;
62844;SDS011;48929;47.910;20.390;2023-03-23T02:21:57;23.23;;;11.57;;
62844;SDS011;48929;47.910;20.390;2023-03-23T02:24:43;22.67;;;11.18;;
62844;SDS011;48929;47.910;20.390;2023-03-23T02:27:27;21.75;;;11.10;;
62844;SDS011;48929;47.910;20.390;2023-03-23T02:30:22;22.55;;;11.43;;
62844;SDS011;48929;47.910;20.390;2023-03-23T02:36:11;24.42;;;11.65;;
62844;SDS011;48929;47.910;20.390;2023-03-23T02:38:55;23.25;;;11.02;;
62844;SDS011;48929;47.910;20.390;2023-03-23T02:41:28;24.10;;;11.45;;
62844;SDS011;48929;47.910;20.390;2023-03-23T02:43:58;22.42;;;11.20;;
62844;SDS011;48929;47.910;20.390;2023-03-23T02:46:29;26.92;;;12.30;;
62844;SDS011;48929;47.910;20.390;2023-03-23T02:49:00;21.92;;;11.30;;
62844;SDS011;48929;47.910;20.390;2023-03-23T02:51:33;23.30;;;11.30;;
62844;SDS011;48929;47.910;20.390;2023-03-23T02:54:04;21.65;;;11.25;;
62844;SDS011;48929;47.910;20.390;2023-03-23T02:56:32;20.25;;;10.63;;
62844;SDS011;48929;47.910;20.390;2023-03-23T02:59:01;21.85;;;10.52;;
62844;SDS011;48929;47.910;20.390;2023-03-23T03:04:19;21.10;;;10.43;;
62844;SDS011;48929;47.910;20.390;2023-03-23T03:06:53;19.52;;;10.10;;
62844;SDS011;48929;47.910;20.390;2023-03-23T03:09:50;21.08;;;10.43;;
62844;SDS011;48929;47.910;20.390;2023-03-23T03:12:24;20.48;;;9.55;;
62844;SDS011;48929;47.910;20.390;2023-03-23T03:14:58;23.58;;;9.95;;
62844;SDS011;48929;47.910;20.390;2023-03-23T03:17:36;24.58;;;10.05;;
62844;SDS011;48929;47.910;20.390;2023-03-23T03:20:10;19.83;;;9.70;;
62844;SDS011;48929;47.910;20.390;2023-03-23T03:22:40;20.50;;;10.05;;
62844;SDS011;48929;47.910;20.390;2023-03-23T03:25:11;21.25;;;9.98;;
62844;SDS011;48929;47.910;20.390;2023-03-23T03:27:41;17.02;;;8.75;;
62844;SDS011;48929;47.910;20.390;2023-03-23T03:30:11;19.85;;;10.15;;
62844;SDS011;48929;47.910;20.390;2023-03-23T03:32:43;17.88;;;9.77;;
62844;SDS011;48929;47.910;20.390;2023-03-23T03:35:15;19.60;;;9.70;;
62844;SDS011;48929;47.910;20.390;2023-03-23T03:37:43;22.13;;;9.80;;
62844;SDS011;48929;47.910;20.390;2023-03-23T03:40:12;17.65;;;9.35;;
62844;SDS011;48929;47.910;20.390;2023-03-23T03:42:42;18.52;;;9.35;;
62844;SDS011;48929;47.910;20.390;2023-03-23T03:45:12;21.58;;;9.05;;
62844;SDS011;48929;47.910;20.390;2023-03-23T03:47:41;20.17;;;9.20;;
62844;SDS011;48929;47.910;20.390;2023-03-23T03:50:09;21.73;;;9.77;;
62844;SDS011;48929;47.910;20.390;2023-03-23T03:52:39;18.00;;;9.13;;
62844;SDS011;48929;47.910;20.390;2023-03-23T03:55:07;18.60;;;9.38;;
62844;SDS011;48929;47.910;20.390;2023-03-23T03:57:35;18.13;;;9.18;;
62844;SDS011;48929;47.910;20.390;2023-03-23T04:00:05;17.15;;;8.85;;
62844;SDS011;48929;47.910;20.390;2023-03-23T04:02:40;18.55;;;9.30;;
62844;SDS011;48929;47.910;20.390;2023-03-23T04:05:09;17.77;;;9.32;;
62844;SDS011;48929;47.910;20.390;2023-03-23T04:07:37;17.25;;;8.95;;
62844;SDS011;48929;47.910;20.390;2023-03-23T04:10:08;18.25;;;9.68;;
62844;SDS011;48929;47.910;20.390;2023-03-23T04:12:37;19.90;;;10.32;;
62844;SDS011;48929;47.910;20.390;2023-03-23T04:15:05;19.15;;;9.80;;
62844;SDS011;48929;47.910;20.390;2023-03-23T04:17:35;20.42;;;10.27;;
62844;SDS011;48929;47.910;20.390;2023-03-23T04:20:04;21.23;;;10.82;;
62844;SDS011;48929;47.910;20.390;2023-03-23T04:22:40;22.35;;;9.90;;
62844;SDS011;48929;47.910;20.390;2023-03-23T04:25:09;15.45;;;8.90;;
62844;SDS011;48929;47.910;20.390;2023-03-23T04:27:38;19.30;;;9.77;;
62844;SDS011;48929;47.910;20.390;2023-03-23T04:30:09;19.08;;;9.23;;
62844;SDS011;48929;47.910;20.390;2023-03-23T04:32:38;20.15;;;10.00;;
62844;SDS011;48929;47.910;20.390;2023-03-23T04:35:08;20.30;;;9.18;;
62844;SDS011;48929;47.910;20.390;2023-03-23T04:37:39;20.08;;;9.85;;
62844;SDS011;48929;47.910;20.390;2023-03-23T04:40:08;17.77;;;9.50;;
62844;SDS011;48929;47.910;20.390;2023-03-23T04:42:40;18.95;;;9.35;;
62844;SDS011;48929;47.910;20.390;2023-03-23T04:45:11;19.48;;;10.20;;
62844;SDS011;48929;47.910;20.390;2023-03-23T04:47:40;19.13;;;9.77;;
62844;SDS011;48929;47.910;20.390;2023-03-23T04:50:14;17.70;;;9.45;;
62844;SDS011;48929;47.910;20.390;2023-03-23T04:52:44;18.95;;;9.30;;
62844;SDS011;48929;47.910;20.390;2023-03-23T04:55:12;17.13;;;9.13;;
62844;SDS011;48929;47.910;20.390;2023-03-23T04:57:41;22.48;;;8.88;;
62844;SDS011;48929;47.910;20.390;2023-03-23T05:00:09;19.42;;;9.77;;
62844;SDS011;48929;47.910;20.390;2023-03-23T05:02:40;16.15;;;9.55;;
62844;SDS011;48929;47.910;20.390;2023-03-23T05:05:07;17.40;;;9.23;;
62844;SDS011;48929;47.910;20.390;2023-03-23T05:07:36;19.02;;;9.27;;
62844;SDS011;48929;47.910;20.390;2023-03-23T05:10:07;20.67;;;9.15;;
62844;SDS011;48929;47.910;20.390;2023-03-23T05:12:36;20.25;;;10.00;;
62844;SDS011;48929;47.910;20.390;2023-03-23T05:15:05;20.77;;;9.80;;
62844;SDS011;48929;47.910;20.390;2023-03-23T05:17:33;18.92;;;9.25;;
62844;SDS011;48929;47.910;20.390;2023-03-23T05:20:02;16.55;;;9.10;;
62844;SDS011;48929;47.910;20.390;2023-03-23T05:22:34;20.77;;;9.20;;
62844;SDS011;48929;47.910;20.390;2023-03-23T05:25:02;17.50;;;8.88;;
62844;SDS011;48929;47.910;20.390;2023-03-23T05:27:31;21.33;;;9.85;;
62844;SDS011;48929;47.910;20.390;2023-03-23T05:29:59;18.90;;;10.05;;
62844;SDS011;48929;47.910;20.390;2023-03-23T05:32:26;20.95;;;10.63;;
62844;SDS011;48929;47.910;20.390;2023-03-23T05:34:56;19.65;;;10.20;;
62844;SDS011;48929;47.910;20.390;2023-03-23T05:37:24;22.30;;;10.07;;
62844;SDS011;48929;47.910;20.390;2023-03-23T05:39:54;20.35;;;9.80;;
62844;SDS011;48929;47.910;20.390;2023-03-23T05:42:21;18.23;;;10.02;;
62844;SDS011;48929;47.910;20.390;2023-03-23T05:44:50;21.15;;;11.15;;
62844;SDS011;48929;47.910;20.390;2023-03-23T05:47:18;20.83;;;10.68;;
62844;SDS011;48929;47.910;20.390;2023-03-23T05:49:46;17.05;;;10.07;;
62844;SDS011;48929;47.910;20.390;2023-03-23T05:52:14;18.60;;;10.27;;
62844;SDS011;48929;47.910;20.390;2023-03-23T05:54:41;22.25;;;10.25;;
62844;SDS011;48929;47.910;20.390;2023-03-23T05:57:10;21.95;;;10.43;;
62844;SDS011;48929;47.910;20.390;2023-03-23T05:59:38;19.60;;;9.80;;
62844;SDS011;48929;47.910;20.390;2023-03-23T06:02:07;17.88;;;9.60;;
62844;SDS011;48929;47.910;20.390;2023-03-23T06:04:36;20.33;;;10.13;;
62844;SDS011;48929;47.910;20.390;2023-03-23T06:07:06;18.63;;;9.85;;
62844;SDS011;48929;47.910;20.390;2023-03-23T06:09:38;22.05;;;10.60;;
62844;SDS011;48929;47.910;20.390;2023-03-23T06:12:06;21.08;;;10.32;;
62844;SDS011;48929;47.910;20.390;2023-03-23T06:14:34;21.48;;;10.48;;
62844;SDS011;48929;47.910;20.390;2023-03-23T06:17:02;54.97;;;30.30;;
62844;SDS011;48929;47.910;20.390;2023-03-23T06:19:32;39.10;;;20.52;;
62844;SDS011;48929;47.910;20.390;2023-03-23T06:22:00;33.25;;;18.85;;
62844;SDS011;48929;47.910;20.390;2023-03-23T06:24:28;38.03;;;22.25;;
62844;SDS011;48929;47.910;20.390;2023-03-23T06:26:55;33.50;;;18.17;;
62844;SDS011;48929;47.910;20.390;2023-03-23T06:29:22;37.25;;;18.00;;
62844;SDS011;48929;47.910;20.390;2023-03-23T06:31:51;38.42;;;21.08;;
62844;SDS011;48929;47.910;20.390;2023-03-23T06:34:19;30.80;;;18.00;;
62844;SDS011;48929;47.910;20.390;2023-03-23T06:36:49;38.55;;;20.13;;
62844;SDS011;48929;47.910;20.390;2023-03-23T06:39:16;31.42;;;15.45;;
62844;SDS011;48929;47.910;20.390;2023-03-23T06:41:43;54.10;;;27.30;;
62844;SDS011;48929;47.910;20.390;2023-03-23T06:44:10;36.47;;;19.52;;
62844;SDS011;48929;47.910;20.390;2023-03-23T06:46:38;30.73;;;17.85;;
62844;SDS011;48929;47.910;20.390;2023-03-23T06:49:06;27.80;;;15.05;;
62844;SDS011;48929;47.910;20.390;2023-03-23T06:51:34;18.98;;;11.70;;
62844;SDS011;48929;47.910;20.390;2023-03-23T06:54:03;20.17;;;11.07;;
62844;SDS011;48929;47.910;20.390;2023-03-23T06:56:33;17.67;;;9.52;;
62844;SDS011;48929;47.910;20.390;2023-03-23T06:59:01;21.48;;;12.57;;
62844;SDS011;48929;47.910;20.390;2023-03-23T07:01:31;21.98;;;11.40;;
62844;SDS011;48929;47.910;20.390;2023-03-23T07:03:59;19.92;;;13.30;;
62844;SDS011;48929;47.910;20.390;2023-03-23T07:06:26;16.88;;;10.65;;
62844;SDS011;48929;47.910;20.390;2023-03-23T07:08:53;18.95;;;10.63;;
62844;SDS011;48929;47.910;20.390;2023-03-23T07:11:25;17.25;;;9.45;;
62844;SDS011;48929;47.910;20.390;2023-03-23T07:13:53;12.82;;;7.05;;
62844;SDS011;48929;47.910;20.390;2023-03-23T07:16:20;13.63;;;8.00;;
62844;SDS011;48929;47.910;20.390;2023-03-23T07:18:48;11.75;;;7.30;;
62844;SDS011;48929;47.910;20.390;2023-03-23T07:21:15;10.18;;;6.30;;
62844;SDS011;48929;47.910;20.390;2023-03-23T07:23:43;10.38;;;6.60;;
62844;SDS011;48929;47.910;20.390;2023-03-23T07:26:12;11.25;;;6.22;;
62844;SDS011;48929;47.910;20.390;2023-03-23T07:28:41;12.13;;;6.47;;
62844;SDS011;48929;47.910;20.390;2023-03-23T07:31:08;10.02;;;6.00;;
62844;SDS011;48929;47.910;20.390;2023-03-23T07:33:35;9.90;;;6.15;;
62844;SDS011;48929;47.910;20.390;2023-03-23T07:36:03;10.45;;;6.32;;
62844;SDS011;48929;47.910;20.390;2023-03-23T07:38:31;9.48;;;6.13;;
62844;SDS011;48929;47.910;20.390;2023-03-23T07:40:58;10.40;;;6.75;;
62844;SDS011;48929;47.910;20.390;2023-03-23T07:43:26;9.68;;;6.57;;
62844;SDS011;48929;47.910;20.390;2023-03-23T07:45:55;9.80;;;6.25;;
62844;SDS011;48929;47.910;20.390;2023-03-23T07:48:23;9.35;;;6.43;;
62844;SDS011;48929;47.910;20.390;2023-03-23T07:50:50;11.43;;;6.70;;
62844;SDS011;48929;47.910;20.390;2023-03-23T07:53:17;11.07;;;6.65;;
62844;SDS011;48929;47.910;20.390;2023-03-23T07:55:46;15.68;;;7.38;;
62844;SDS011;48929;47.910;20.390;2023-03-23T07:58:14;9.82;;;6.15;;
62844;SDS011;48929;47.910;20.390;2023-03-23T08:00:45;8.77;;;6.05;;
62844;SDS011;48929;47.910;20.390;2023-03-23T08:03:18;9.30;;;5.43;;
62844;SDS011;48929;47.910;20.390;2023-03-23T08:05:46;9.65;;;5.20;;
62844;SDS011;48929;47.910;20.390;2023-03-23T08:08:13;6.63;;;4.28;;
62844;SDS011;48929;47.910;20.390;2023-03-23T08:10:40;7.97;;;5.10;;
62844;SDS011;48929;47.910;20.390;2023-03-23T08:13:07;7.53;;;4.22;;
62844;SDS011;48929;47.910;20.390;2023-03-23T08:15:35;7.35;;;4.90;;
62844;SDS011;48929;47.910;20.390;2023-03-23T08:18:03;5.78;;;4.30;;
62844;SDS011;48929;47.910;20.390;2023-03-23T08:20:32;6.50;;;4.20;;
62844;SDS011;48929;47.910;20.390;2023-03-23T08:22:59;5.88;;;4.18;;
62844;SDS011;48929;47.910;20.390;2023-03-23T08:25:28;6.50;;;4.20;;
62844;SDS011;48929;47.910;20.390;2023-03-23T08:27:56;6.72;;;4.35;;
62844;SDS011;48929;47.910;20.390;2023-03-23T08:30:24;6.95;;;4.13;;
62844;SDS011;48929;47.910;20.390;2023-03-23T08:32:54;6.97;;;4.53;;
62844;SDS011;48929;47.910;20.390;2023-03-23T08:35:22;6.65;;;4.88;;
62844;SDS011;48929;47.910;20.390;2023-03-23T08:37:51;6.88;;;4.20;;
62844;SDS011;48929;47.910;20.390;2023-03-23T08:40:21;6.30;;;4.40;;
62844;SDS011;48929;47.910;20.390;2023-03-23T08:42:49;6.93;;;4.90;;
62844;SDS011;48929;47.910;20.390;2023-03-23T08:45:19;8.02;;;5.40;;
62844;SDS011;48929;47.910;20.390;2023-03-23T08:47:47;7.28;;;4.75;;
62844;SDS011;48929;47.910;20.390;2023-03-23T08:50:19;7.53;;;5.40;;
62844;SDS011;48929;47.910;20.390;2023-03-23T08:52:48;8.05;;;5.03;;
62844;SDS011;48929;47.910;20.390;2023-03-23T08:55:20;9.35;;;5.57;;
62844;SDS011;48929;47.910;20.390;2023-03-23T08:57:48;8.75;;;5.90;;
62844;SDS011;48929;47.910;20.390;2023-03-23T09:00:16;9.00;;;6.63;;
62844;SDS011;48929;47.910;20.390;2023-03-23T09:02:45;8.05;;;6.28;;
62844;SDS011;48929;47.910;20.390;2023-03-23T09:05:14;10.43;;;6.82;;
62844;SDS011;48929;47.910;20.390;2023-03-23T09:07:42;8.73;;;6.13;;
62844;SDS011;48929;47.910;20.390;2023-03-23T09:10:10;8.63;;;6.22;;
62844;SDS011;48929;47.910;20.390;2023-03-23T09:12:40;9.40;;;6.35;;
62844;SDS011;48929;47.910;20.390;2023-03-23T09:15:09;8.20;;;6.30;;
62844;SDS011;48929;47.910;20.390;2023-03-23T09:17:38;8.88;;;6.00;;
62844;SDS011;48929;47.910;20.390;2023-03-23T09:20:05;9.38;;;6.22;;
62844;SDS011;48929;47.910;20.390;2023-03-23T09:22:36;7.93;;;5.68;;
62844;SDS011;48929;47.910;20.390;2023-03-23T09:25:04;8.60;;;6.38;;
62844;SDS011;48929;47.910;20.390;2023-03-23T09:27:31;8.30;;;5.93;;
62844;SDS011;48929;47.910;20.390;2023-03-23T09:30:00;9.18;;;6.28;;
62844;SDS011;48929;47.910;20.390;2023-03-23T09:32:28;9.20;;;6.40;;
62844;SDS011;48929;47.910;20.390;2023-03-23T09:34:56;10.25;;;6.60;;
62844;SDS011;48929;47.910;20.390;2023-03-23T09:37:23;10.40;;;6.05;;
62844;SDS011;48929;47.910;20.390;2023-03-23T09:39:51;7.82;;;5.70;;
62844;SDS011;48929;47.910;20.390;2023-03-23T09:42:36;6.82;;;5.53;;
62844;SDS011;48929;47.910;20.390;2023-03-23T09:45:09;8.60;;;5.95;;
62844;SDS011;48929;47.910;20.390;2023-03-23T09:47:39;9.68;;;6.03;;
62844;SDS011;48929;47.910;20.390;2023-03-23T09:50:10;7.50;;;5.57;;
62844;SDS011;48929;47.910;20.390;2023-03-23T09:52:39;8.82;;;5.95;;
62844;SDS011;48929;47.910;20.390;2023-03-23T09:55:09;7.90;;;5.63;;
62844;SDS011;48929;47.910;20.390;2023-03-23T09:57:39;8.98;;;5.82;;
62844;SDS011;48929;47.910;20.390;2023-03-23T10:00:12;9.18;;;5.93;;
62844;SDS011;48929;47.910;20.390;2023-03-23T10:02:43;7.45;;;5.60;;
62844;SDS011;48929;47.910;20.390;2023-03-23T10:05:25;9.63;;;6.20;;
62844;SDS011;48929;47.910;20.390;2023-03-23T10:07:55;9.40;;;6.20;;
62844;SDS011;48929;47.910;20.390;2023-03-23T10:10:22;7.32;;;5.40;;
62844;SDS011;48929;47.910;20.390;2023-03-23T10:12:54;8.65;;;5.47;;
62844;SDS011;48929;47.910;20.390;2023-03-23T10:15:28;7.57;;;5.55;;
62844;SDS011;48929;47.910;20.390;2023-03-23T10:17:59;8.30;;;5.60;;
62844;SDS011;48929;47.910;20.390;2023-03-23T10:20:35;8.57;;;5.57;;
62844;SDS011;48929;47.910;20.390;2023-03-23T10:23:12;7.57;;;5.55;;
62844;SDS011;48929;47.910;20.390;2023-03-23T10:25:52;6.65;;;5.45;;
62844;SDS011;48929;47.910;20.390;2023-03-23T10:28:25;7.63;;;5.20;;
62844;SDS011;48929;47.910;20.390;2023-03-23T10:31:04;6.20;;;4.68;;
62844;SDS011;48929;47.910;20.390;2023-03-23T10:33:38;7.72;;;5.60;;
62844;SDS011;48929;47.910;20.390;2023-03-23T10:36:09;8.35;;;5.75;;
62844;SDS011;48929;47.910;20.390;2023-03-23T10:38:41;6.57;;;4.65;;
62844;SDS011;48929;47.910;20.390;2023-03-23T10:41:13;7.60;;;5.47;;
62844;SDS011;48929;47.910;20.390;2023-03-23T10:43:43;8.68;;;5.10;;
62844;SDS011;48929;47.910;20.390;2023-03-23T10:46:18;7.53;;;4.43;;
62844;SDS011;48929;47.910;20.390;2023-03-23T10:48:53;6.57;;;4.47;;
62844;SDS011;48929;47.910;20.390;2023-03-23T10:51:27;6.70;;;4.75;;
62844;SDS011;48929;47.910;20.390;2023-03-23T10:53:59;5.38;;;3.95;;
62844;SDS011;48929;47.910;20.390;2023-03-23T10:56:29;5.72;;;4.22;;
62844;SDS011;48929;47.910;20.390;2023-03-23T10:59:10;5.97;;;4.40;;
62844;SDS011;48929;47.910;20.390;2023-03-23T11:01:42;8.20;;;4.55;;
62844;SDS011;48929;47.910;20.390;2023-03-23T11:04:13;7.75;;;5.07;;
62844;SDS011;48929;47.910;20.390;2023-03-23T11:06:44;6.43;;;4.70;;
62844;SDS011;48929;47.910;20.390;2023-03-23T11:09:14;9.15;;;4.40;;
62844;SDS011;48929;47.910;20.390;2023-03-23T11:11:47;5.32;;;4.05;;
62844;SDS011;48929;47.910;20.390;2023-03-23T11:14:18;7.20;;;4.30;;
62844;SDS011;48929;47.910;20.390;2023-03-23T11:16:51;6.28;;;4.10;;
62844;SDS011;48929;47.910;20.390;2023-03-23T11:19:22;9.85;;;4.60;;
62844;SDS011;48929;47.910;20.390;2023-03-23T11:21:52;6.78;;;4.97;;
62844;SDS011;48929;47.910;20.390;2023-03-23T11:24:25;5.88;;;4.63;;
62844;SDS011;48929;47.910;20.390;2023-03-23T11:26:53;6.40;;;4.80;;
62844;SDS011;48929;47.910;20.390;2023-03-23T11:29:24;6.63;;;4.38;;
62844;SDS011;48929;47.910;20.390;2023-03-23T11:32:04;6.85;;;4.80;;
62844;SDS011;48929;47.910;20.390;2023-03-23T11:34:39;7.25;;;4.88;;
62844;SDS011;48929;47.910;20.390;2023-03-23T11:37:09;6.45;;;4.70;;
62844;SDS011;48929;47.910;20.390;2023-03-23T11:39:46;6.45;;;5.22;;
62844;SDS011;48929;47.910;20.390;2023-03-23T11:42:18;5.85;;;4.43;;
62844;SDS011;48929;47.910;20.390;2023-03-23T11:44:46;6.88;;;4.45;;
62844;SDS011;48929;47.910;20.390;2023-03-23T11:47:18;6.75;;;4.95;;
62844;SDS011;48929;47.910;20.390;2023-03-23T11:49:52;7.88;;;5.00;;
62844;SDS011;48929;47.910;20.390;2023-03-23T11:52:32;7.00;;;4.68;;
62844;SDS011;48929;47.910;20.390;2023-03-23T11:55:08;9.23;;;5.20;;
62844;SDS011;48929;47.910;20.390;2023-03-23T11:57:40;6.40;;;5.03;;
62844;SDS011;48929;47.910;20.390;2023-03-23T12:00:12;6.65;;;4.65;;
62844;SDS011;48929;47.910;20.390;2023-03-23T12:05:37;6.13;;;4.50;;
62844;SDS011;48929;47.910;20.390;2023-03-23T12:08:16;5.93;;;4.38;;
62844;SDS011;48929;47.910;20.390;2023-03-23T12:10:52;6.32;;;4.28;;
62844;SDS011;48929;47.910;20.390;2023-03-23T12:13:32;7.20;;;4.43;;
62844;SDS011;48929;47.910;20.390;2023-03-23T12:16:20;6.10;;;4.32;;
62844;SDS011;48929;47.910;20.390;2023-03-23T12:18:58;6.55;;;4.30;;
62844;SDS011;48929;47.910;20.390;2023-03-23T12:21:34;6.20;;;4.32;;
62844;SDS011;48929;47.910;20.390;2023-03-23T12:24:13;5.70;;;4.47;;
62844;SDS011;48929;47.910;20.390;2023-03-23T12:26:47;10.67;;;4.77;;
62844;SDS011;48929;47.910;20.390;2023-03-23T12:29:32;5.30;;;3.88;;
62844;SDS011;48929;47.910;20.390;2023-03-23T12:32:24;4.82;;;4.03;;
62844;SDS011;48929;47.910;20.390;2023-03-23T12:35:02;6.05;;;4.00;;
62844;SDS011;48929;47.910;20.390;2023-03-23T12:37:43;4.43;;;3.85;;
62844;SDS011;48929;47.910;20.390;2023-03-23T12:40:36;7.60;;;4.32;;
62844;SDS011;48929;47.910;20.390;2023-03-23T12:43:13;8.52;;;5.10;;
62844;SDS011;48929;47.910;20.390;2023-03-23T12:45:53;6.82;;;4.25;;
62844;SDS011;48929;47.910;20.390;2023-03-23T12:48:32;5.28;;;3.92;;
62844;SDS011;48929;47.910;20.390;2023-03-23T12:51:12;4.82;;;3.70;;
62844;SDS011;48929;47.910;20.390;2023-03-23T12:53:47;5.00;;;3.58;;
62844;SDS011;48929;47.910;20.390;2023-03-23T12:56:21;7.47;;;3.30;;
62844;SDS011;48929;47.910;20.390;2023-03-23T12:58:54;4.38;;;3.30;;
62844;SDS011;48929;47.910;20.390;2023-03-23T13:01:28;6.00;;;3.35;;
62844;SDS011;48929;47.910;20.390;2023-03-23T13:04:00;5.93;;;3.47;;
62844;SDS011;48929;47.910;20.390;2023-03-23T13:06:34;6.97;;;3.80;;
62844;SDS011;48929;47.910;20.390;2023-03-23T13:09:05;6.57;;;3.38;;
62844;SDS011;48929;47.910;20.390;2023-03-23T13:11:39;5.30;;;3.67;;
62844;SDS011;48929;47.910;20.390;2023-03-23T13:17:07;6.22;;;3.50;;
62844;SDS011;48929;47.910;20.390;2023-03-23T13:19:54;5.00;;;3.53;;
62844;SDS011;48929;47.910;20.390;2023-03-23T13:22:39;4.43;;;3.22;;
62844;SDS011;48929;47.910;20.390;2023-03-23T13:25:13;4.20;;;3.05;;
62844;SDS011;48929;47.910;20.390;2023-03-23T13:27:55;4.97;;;3.20;;
62844;SDS011;48929;47.910;20.390;2023-03-23T13:30:24;5.43;;;3.20;;
62844;SDS011;48929;47.910;20.390;2023-03-23T13:33:01;5.50;;;3.70;;
62844;SDS011;48929;47.910;20.390;2023-03-23T13:35:33;5.00;;;3.60;;
62844;SDS011;48929;47.910;20.390;2023-03-23T13:38:10;4.35;;;3.30;;
62844;SDS011;48929;47.910;20.390;2023-03-23T13:40:44;4.93;;;3.58;;
62844;SDS011;48929;47.910;20.390;2023-03-23T13:43:12;4.15;;;3.15;;
62844;SDS011;48929;47.910;20.390;2023-03-23T13:45:45;5.20;;;3.50;;
62844;SDS011;48929;47.910;20.390;2023-03-23T13:48:18;5.40;;;3.67;;
62844;SDS011;48929;47.910;20.390;2023-03-23T13:50:52;5.13;;;3.45;;
62844;SDS011;48929;47.910;20.390;2023-03-23T13:53:24;5.03;;;3.60;;
62844;SDS011;48929;47.910;20.390;2023-03-23T13:55:51;4.32;;;3.35;;
62844;SDS011;48929;47.910;20.390;2023-03-23T13:58:30;5.20;;;3.60;;
62844;SDS011;48929;47.910;20.390;2023-03-23T14:01:02;4.40;;;3.33;;
62844;SDS011;48929;47.910;20.390;2023-03-23T14:03:42;4.85;;;3.70;;
62844;SDS011;48929;47.910;20.390;2023-03-23T14:06:16;4.85;;;3.47;;
62844;SDS011;48929;47.910;20.390;2023-03-23T14:08:49;5.15;;;3.50;;
62844;SDS011;48929;47.910;20.390;2023-03-23T14:11:18;5.40;;;3.38;;
62844;SDS011;48929;47.910;20.390;2023-03-23T14:13:49;5.38;;;3.50;;
62844;SDS011;48929;47.910;20.390;2023-03-23T14:16:18;6.32;;;3.50;;
62844;SDS011;48929;47.910;20.390;2023-03-23T14:18:48;5.03;;;3.20;;
62844;SDS011;48929;47.910;20.390;2023-03-23T14:21:21;4.97;;;3.42;;
62844;SDS011;48929;47.910;20.390;2023-03-23T14:23:50;7.07;;;3.50;;
62844;SDS011;48929;47.910;20.390;2023-03-23T14:26:18;6.00;;;3.60;;
62844;SDS011;48929;47.910;20.390;2023-03-23T14:28:49;6.35;;;3.70;;
62844;SDS011;48929;47.910;20.390;2023-03-23T14:31:17;6.38;;;3.42;;
62844;SDS011;48929;47.910;20.390;2023-03-23T14:33:46;5.47;;;3.67;;
62844;SDS011;48929;47.910;20.390;2023-03-23T14:36:14;5.05;;;3.90;;
62844;SDS011;48929;47.910;20.390;2023-03-23T14:38:45;5.32;;;3.90;;
62844;SDS011;48929;47.910;20.390;2023-03-23T14:41:15;7.18;;;3.78;;
62844;SDS011;48929;47.910;20.390;2023-03-23T14:43:42;6.20;;;3.58;;
62844;SDS011;48929;47.910;20.390;2023-03-23T14:46:10;6.07;;;3.33;;
62844;SDS011;48929;47.910;20.390;2023-03-23T14:48:39;6.60;;;4.00;;
62844;SDS011;48929;47.910;20.390;2023-03-23T14:51:07;5.93;;;4.18;;
62844;SDS011;48929;47.910;20.390;2023-03-23T14:53:45;5.80;;;4.00;;
62844;SDS011;48929;47.910;20.390;2023-03-23T14:56:15;6.32;;;3.72;;
62844;SDS011;48929;47.910;20.390;2023-03-23T14:58:45;4.72;;;3.80;;